Friday, January 19, 2018, 7:34 AM GMT
Back to Local

CWPD, Parc Des Laurentid

Location: , , Canada Lat: 47.567
Local Time: 7:34 AM GMT ( 7:34 GMT) Lon: -71.233
Time Zone: GMT Elev: 2634 ft

Show me the last for .
Show Coded

Time T Td Feel RH Dir Speed Gust Alt SLP Vis Weather Sky Remarks
2018-01-19 07:00 6 5 - 94 - Calm - - 29.82 0 None
2018-01-19 06:00 6 4 - 93 - Calm - - 29.82 0 None
2018-01-19 05:00 6 5 -1 95 210° 3 - - 29.83 0 None
2018-01-19 04:00 5 3 - 93 200° 2 - - 29.84 0 None
2018-01-19 03:00 9 8 - 93 - Calm - - 29.83 0 None
2018-01-19 02:00 13 11 - 92 60° 1 - - 29.82 0 None
2018-01-19 01:00 14 13 - 93 150° 1 - - 29.81 0 None
2018-01-19 00:00 15 13 9 92 180° 3 - - 29.81 0 None
2018-01-18 23:00 15 12 - 89 220° 2 - - 29.80 0 None
2018-01-18 22:00 14 12 9 88 180° 3 - - 29.79 0 None
2018-01-18 21:00 14 12 - 90 100° 1 - - 29.79 0 None
2018-01-18 20:00 15 12 - 89 120° 2 - - 29.77 0 None
2018-01-18 19:00 15 12 9 88 160° 3 - - 29.77 0 None
2018-01-18 17:00 15 12 5 89 190° 7 - - 29.76 0 None
2018-01-18 16:00 14 11 4 88 190° 7 - - 29.77 0 None
2018-01-18 15:00 13 11 -5 92 200° 9 18 - 29.79 0 None
2018-01-18 14:00 11 10 3 94 180° 5 - - 29.78 0 None
2018-01-18 13:00 10 8 -1 92 190° 7 - - 29.78 0 None
2018-01-18 12:00 11 8 2 85 180° 6 - - 29.77 0 None
2018-01-18 11:00 9 8 1 92 190° 5 - - 29.77 0 None
2018-01-18 10:00 9 7 -9 92 200° 7 17 - 29.77 0 None
2018-01-18 09:00 8 7 -2 93 180° 6 - - 29.78 0 1-hr Precip Total: 0.08"
2018-01-18 08:00 8 7 -2 92 190° 6 - - 29.80 0 None

Support USWX by starting your Amazon purchase here.